createdAt,value
2023-05-15T00:00:00.916Z,12.02
2023-05-15T00:02:28.254Z,12.11
2023-05-15T00:04:55.472Z,12.31
2023-05-15T00:07:22.702Z,12.41
2023-05-15T00:09:49.792Z,12.34
2023-05-15T00:12:16.893Z,12.36
2023-05-15T00:14:43.996Z,12.30
2023-05-15T00:17:12.609Z,12.26
2023-05-15T00:19:39.760Z,12.15
2023-05-15T00:22:06.940Z,12.12
2023-05-15T00:24:34.380Z,12.16
2023-05-15T00:27:01.930Z,12.40
2023-05-15T00:29:30.828Z,12.32
2023-05-15T00:31:57.999Z,12.25
2023-05-15T00:34:26.127Z,12.08
2023-05-15T00:36:53.212Z,12.12
2023-05-15T00:39:20.412Z,12.35
2023-05-15T00:41:50.124Z,12.28
2023-05-15T00:44:19.281Z,12.16
2023-05-15T00:46:47.243Z,12.11
2023-05-15T00:49:14.780Z,12.12
2023-05-15T00:51:42.697Z,12.08
2023-05-15T00:54:11.339Z,12.03
2023-05-15T00:56:39.461Z,11.96
2023-05-15T00:59:07.782Z,12.02
2023-05-15T01:01:35.288Z,11.99
2023-05-15T01:04:04.357Z,11.98
2023-05-15T01:06:32.252Z,11.91
2023-05-15T01:09:04.620Z,12.30
2023-05-15T01:11:36.412Z,12.28
2023-05-15T01:14:08.451Z,12.17
2023-05-15T01:16:36.515Z,12.19
2023-05-15T01:19:05.141Z,12.27
2023-05-15T01:21:35.200Z,12.26
2023-05-15T01:24:35.555Z,12.32
2023-05-15T01:27:26.245Z,12.26
2023-05-15T01:30:03.992Z,12.07
2023-05-15T01:32:38.251Z,12.01
2023-05-15T01:35:05.474Z,12.23
2023-05-15T01:37:37.133Z,12.37
2023-05-15T01:40:09.469Z,12.27
2023-05-15T01:42:42.246Z,12.26
2023-05-15T01:45:12.029Z,12.25
2023-05-15T01:47:44.155Z,12.20
2023-05-15T01:50:15.285Z,12.14
2023-05-15T01:52:49.472Z,12.12
2023-05-15T01:55:19.382Z,12.13
2023-05-15T01:57:49.172Z,12.19
2023-05-15T02:00:17.351Z,12.05
2023-05-15T02:02:46.184Z,12.01
2023-05-15T02:05:14.378Z,12.16
2023-05-15T02:07:44.117Z,12.26
2023-05-15T02:10:15.531Z,12.19
2023-05-15T02:12:47.193Z,12.16
2023-05-15T02:15:15.776Z,12.13
2023-05-15T02:17:43.023Z,12.01
2023-05-15T02:20:10.384Z,12.10
2023-05-15T02:22:38.409Z,12.11
2023-05-15T02:25:06.408Z,12.11
2023-05-15T02:27:51.905Z,12.16
2023-05-15T02:30:37.247Z,12.00
2023-05-15T02:33:19.746Z,12.01
2023-05-15T02:36:11.546Z,12.20
2023-05-15T02:38:49.389Z,12.15
2023-05-15T02:41:17.653Z,12.12
2023-05-15T02:43:45.960Z,11.93
2023-05-15T02:46:14.922Z,11.89
2023-05-15T02:48:43.663Z,12.13
2023-05-15T02:51:10.987Z,12.07
2023-05-15T02:53:42.415Z,12.08
2023-05-15T02:56:10.285Z,11.92
2023-05-15T02:58:38.915Z,12.06
2023-05-15T03:01:07.120Z,12.22
2023-05-15T03:03:34.385Z,12.23
2023-05-15T03:06:01.660Z,12.17
2023-05-15T03:08:29.102Z,12.15
2023-05-15T03:10:56.261Z,12.08
2023-05-15T03:13:23.433Z,12.06
2023-05-15T03:15:50.721Z,11.96
2023-05-15T03:18:19.143Z,11.83
2023-05-15T03:20:49.254Z,11.89
2023-05-15T03:23:16.412Z,11.91
2023-05-15T03:25:43.516Z,11.96
2023-05-15T03:28:11.738Z,11.99
2023-05-15T03:30:38.850Z,12.03
2023-05-15T03:33:06.788Z,11.88
2023-05-15T03:35:33.963Z,12.00
2023-05-15T03:38:02.307Z,12.16
2023-05-15T03:40:29.440Z,12.16
2023-05-15T03:42:58.466Z,12.23
2023-05-15T03:45:26.151Z,12.17
2023-05-15T03:47:53.568Z,12.17
2023-05-15T03:50:20.756Z,12.21
2023-05-15T03:52:47.927Z,12.26
2023-05-15T03:55:15.208Z,12.18
2023-05-15T03:57:42.414Z,12.14
2023-05-15T04:00:11.125Z,12.21
2023-05-15T04:02:41.475Z,12.19
2023-05-15T04:05:09.685Z,12.16
2023-05-15T04:07:37.334Z,12.13
2023-05-15T04:10:05.660Z,12.19
2023-05-15T04:12:34.354Z,12.32
2023-05-15T04:15:21.664Z,12.24
2023-05-15T04:17:51.168Z,12.32
2023-05-15T04:20:23.498Z,12.42
2023-05-15T04:22:51.371Z,12.56
2023-05-15T04:25:20.392Z,12.65
2023-05-15T04:27:47.726Z,12.68
2023-05-15T04:30:15.017Z,12.58
2023-05-15T04:32:42.913Z,12.61
2023-05-15T04:35:12.232Z,12.46
2023-05-15T04:37:40.741Z,12.47
2023-05-15T04:40:09.440Z,12.49
2023-05-15T04:42:39.121Z,12.51
2023-05-15T04:45:07.869Z,12.51
2023-05-15T04:47:35.693Z,12.42
2023-05-15T04:50:03.515Z,12.26
2023-05-15T04:52:30.940Z,12.39
2023-05-15T04:54:58.118Z,12.61
2023-05-15T04:57:26.022Z,12.45
2023-05-15T04:59:53.242Z,12.54
2023-05-15T05:02:22.737Z,12.57
2023-05-15T05:04:50.189Z,12.55
2023-05-15T05:07:17.516Z,12.55
2023-05-15T05:09:44.793Z,12.51
2023-05-15T05:12:12.056Z,12.68
2023-05-15T05:14:40.844Z,12.80
2023-05-15T05:17:08.215Z,12.94
2023-05-15T05:19:35.305Z,12.91
2023-05-15T05:22:05.599Z,13.21
2023-05-15T05:24:33.196Z,13.13
2023-05-15T05:27:00.526Z,13.25
2023-05-15T05:29:27.818Z,13.34
2023-05-15T05:31:55.069Z,13.23
2023-05-15T05:34:22.856Z,13.43
2023-05-15T05:36:50.148Z,13.49
2023-05-15T05:39:17.712Z,13.56
2023-05-15T05:41:45.116Z,13.59
2023-05-15T05:44:12.261Z,13.79
2023-05-15T05:46:39.386Z,13.84
2023-05-15T05:49:06.530Z,13.88
2023-05-15T05:51:36.917Z,14.05
2023-05-15T05:54:04.286Z,14.21
2023-05-15T05:56:31.573Z,14.27
2023-05-15T05:59:01.928Z,14.11
2023-05-15T06:01:29.640Z,14.24
2023-05-15T06:03:57.661Z,14.28
2023-05-15T06:06:24.971Z,14.36
2023-05-15T06:08:54.191Z,14.60
2023-05-15T06:11:25.157Z,14.75
2023-05-15T06:13:52.862Z,14.63
2023-05-15T06:16:20.544Z,14.44
2023-05-15T06:18:47.773Z,14.73
2023-05-15T06:21:14.979Z,15.09
2023-05-15T06:23:42.087Z,14.93
2023-05-15T06:26:09.436Z,14.80
2023-05-15T06:28:36.617Z,14.81
2023-05-15T06:31:03.935Z,14.81
2023-05-15T06:33:31.523Z,15.25
2023-05-15T06:35:58.660Z,15.43
2023-05-15T06:38:25.757Z,15.48
2023-05-15T06:40:52.937Z,15.66
2023-05-15T06:43:20.105Z,15.88
2023-05-15T06:45:47.265Z,15.85
2023-05-15T06:48:14.506Z,15.40
2023-05-15T06:50:41.709Z,15.81
2023-05-15T06:53:09.220Z,15.66
2023-05-15T06:55:38.204Z,15.92
2023-05-15T06:58:05.725Z,15.97
2023-05-15T07:00:33.115Z,15.84
2023-05-15T07:03:00.339Z,15.98
2023-05-15T07:05:27.733Z,16.12
2023-05-15T07:07:55.065Z,16.26
2023-05-15T07:10:22.302Z,16.42
2023-05-15T07:12:52.486Z,16.27
2023-05-15T07:15:19.696Z,16.58
2023-05-15T07:17:46.937Z,16.74
2023-05-15T07:20:14.181Z,16.75
2023-05-15T07:22:51.952Z,16.63
2023-05-15T07:25:22.897Z,16.58
2023-05-15T07:27:50.228Z,16.57
2023-05-15T07:30:17.391Z,16.38
2023-05-15T07:32:44.779Z,16.19
2023-05-15T07:35:11.984Z,16.04
2023-05-15T07:37:39.391Z,15.97
2023-05-15T07:40:07.682Z,16.36
2023-05-15T07:42:34.913Z,16.32
2023-05-15T07:45:02.204Z,16.51
2023-05-15T07:47:29.430Z,16.41
2023-05-15T07:49:56.915Z,16.73
2023-05-15T07:52:24.007Z,16.34
2023-05-15T07:54:51.431Z,16.31
2023-05-15T07:57:18.545Z,16.52
2023-05-15T07:59:45.728Z,16.63
2023-05-15T08:02:12.842Z,16.85
2023-05-15T08:04:40.002Z,16.56
2023-05-15T08:07:07.633Z,16.50
2023-05-15T08:09:34.742Z,16.60
2023-05-15T08:12:21.463Z,16.86
2023-05-15T08:14:52.856Z,16.46
2023-05-15T08:17:20.971Z,16.76
2023-05-15T08:19:49.013Z,16.84
2023-05-15T08:22:16.360Z,17.08
2023-05-15T08:24:43.668Z,16.84
2023-05-15T08:27:10.932Z,16.91
2023-05-15T08:29:39.704Z,16.81
2023-05-15T08:32:10.569Z,17.38
2023-05-15T08:34:38.926Z,17.51
2023-05-15T08:37:07.107Z,17.61
2023-05-15T08:39:34.240Z,17.90
2023-05-15T08:42:06.421Z,18.34
2023-05-15T08:44:33.829Z,18.08
2023-05-15T08:47:01.364Z,18.26
2023-05-15T08:50:05.744Z,18.41
2023-05-15T08:52:33.776Z,18.62
2023-05-15T08:55:02.218Z,18.54
2023-05-15T08:57:30.204Z,18.25
2023-05-15T08:59:58.051Z,18.34
2023-05-15T09:02:26.305Z,18.40
2023-05-15T09:04:53.515Z,18.90
2023-05-15T09:07:21.172Z,18.62
2023-05-15T09:09:48.531Z,18.55
2023-05-15T09:12:16.677Z,18.33
2023-05-15T09:14:44.429Z,18.12
2023-05-15T09:17:12.120Z,17.93
2023-05-15T09:19:40.493Z,17.96
2023-05-15T09:22:21.092Z,18.07
2023-05-15T09:24:48.541Z,18.00
2023-05-15T09:27:15.664Z,17.78
2023-05-15T09:29:42.914Z,17.72
2023-05-15T09:32:12.017Z,17.99
2023-05-15T09:34:41.230Z,17.96
2023-05-15T09:37:11.452Z,18.29
2023-05-15T09:39:43.179Z,18.43
2023-05-15T09:42:13.246Z,18.37
2023-05-15T09:44:44.608Z,18.56
2023-05-15T10:18:05.074Z,17.42
2023-05-15T10:20:35.766Z,17.49
2023-05-15T10:23:06.133Z,17.66
2023-05-15T10:26:01.069Z,17.92
2023-05-15T10:28:29.487Z,18.31
2023-05-15T10:31:01.621Z,18.30
2023-05-15T10:33:29.934Z,18.12
2023-05-15T10:35:58.760Z,18.63
2023-05-15T10:38:26.832Z,18.91
2023-05-15T10:41:09.165Z,19.07
2023-05-15T10:43:44.519Z,18.86
2023-05-15T10:46:12.357Z,18.67
2023-05-15T10:48:40.379Z,19.01
2023-05-15T10:51:16.753Z,19.28
2023-05-15T10:53:44.356Z,18.90
2023-05-15T10:56:16.797Z,18.86
2023-05-15T10:58:51.307Z,18.71
2023-05-15T11:01:32.713Z,18.11
2023-05-15T11:04:15.827Z,17.92
2023-05-15T11:06:44.093Z,17.76
2023-05-15T11:09:38.442Z,18.02
2023-05-15T11:12:12.466Z,18.00
2023-05-15T11:14:42.402Z,17.88
2023-05-15T11:17:15.677Z,17.71
2023-05-15T11:19:52.113Z,17.65
2023-05-15T11:22:26.497Z,17.94
2023-05-15T11:25:06.958Z,18.06
2023-05-15T11:27:40.534Z,17.85
2023-05-15T11:30:08.099Z,18.24
2023-05-15T11:32:47.393Z,18.38
2023-05-15T11:35:18.630Z,18.65
2023-05-15T11:37:59.981Z,18.75
2023-05-15T11:40:29.375Z,19.07
2023-05-15T11:43:01.014Z,19.28
2023-05-15T11:45:31.220Z,19.33
2023-05-15T11:48:02.563Z,19.31
2023-05-15T11:50:32.349Z,19.62
2023-05-15T11:53:04.218Z,19.62
2023-05-15T11:55:33.513Z,19.72
2023-05-15T11:58:01.236Z,19.82
2023-05-15T12:00:28.578Z,19.94
2023-05-15T12:02:56.329Z,20.23
2023-05-15T12:05:23.963Z,20.05
2023-05-15T12:07:51.292Z,19.60
2023-05-15T12:10:18.553Z,18.92
2023-05-15T12:12:46.601Z,18.85
2023-05-15T12:15:15.744Z,19.17
2023-05-15T12:17:44.553Z,18.97
2023-05-15T12:20:17.050Z,18.59
2023-05-15T12:22:45.072Z,18.62
2023-05-15T12:25:14.948Z,18.57
2023-05-15T12:27:42.760Z,18.32
2023-05-15T12:30:11.496Z,18.34
2023-05-15T12:32:39.525Z,18.24
2023-05-15T12:35:06.912Z,18.23
2023-05-15T12:37:36.602Z,18.30
2023-05-15T12:40:11.960Z,18.02
2023-05-15T12:42:45.982Z,17.62
2023-05-15T12:45:17.588Z,17.94
2023-05-15T12:47:46.575Z,17.85
2023-05-15T12:50:17.643Z,17.83
2023-05-15T12:52:53.706Z,17.73
2023-05-15T12:55:29.136Z,17.73
2023-05-15T12:58:02.458Z,17.49
2023-05-15T13:00:30.760Z,17.53
2023-05-15T13:02:58.885Z,17.16
2023-05-15T13:05:27.654Z,17.22
2023-05-15T13:07:55.457Z,17.62
2023-05-15T13:10:24.100Z,17.81
2023-05-15T13:12:56.380Z,17.41
2023-05-15T13:15:29.638Z,17.46
2023-05-15T13:18:04.293Z,17.58
2023-05-15T13:20:36.828Z,17.47
2023-05-15T13:23:04.689Z,17.66
2023-05-15T13:25:32.233Z,17.79
2023-05-15T13:28:04.848Z,18.35
2023-05-15T13:30:35.949Z,18.48
2023-05-15T13:33:03.301Z,17.80
2023-05-15T13:35:30.843Z,17.88
2023-05-15T13:37:58.043Z,18.14
2023-05-15T13:40:26.278Z,17.90
2023-05-15T13:42:53.972Z,17.93
2023-05-15T13:45:21.105Z,17.79
2023-05-15T13:47:48.286Z,17.52
2023-05-15T13:50:16.303Z,17.60
2023-05-15T13:52:44.940Z,17.65
2023-05-15T13:55:12.202Z,17.42
2023-05-15T13:57:41.275Z,17.18
2023-05-15T14:00:13.685Z,17.17
2023-05-15T14:02:43.230Z,17.10
2023-05-15T14:05:13.993Z,17.21
2023-05-15T14:07:42.122Z,16.98
2023-05-15T14:10:09.753Z,16.88
2023-05-15T14:12:37.899Z,16.94
2023-05-15T14:15:05.457Z,17.14
2023-05-15T14:17:32.573Z,16.88
2023-05-15T14:19:59.732Z,17.10
2023-05-15T14:22:26.960Z,17.18
2023-05-15T14:24:54.268Z,17.10
2023-05-15T14:27:21.415Z,17.00
2023-05-15T14:29:49.472Z,16.74
2023-05-15T14:32:17.444Z,16.81
2023-05-15T14:34:44.781Z,17.12
2023-05-15T14:37:12.259Z,17.23
2023-05-15T14:39:39.699Z,17.13
2023-05-15T14:42:07.384Z,16.97
2023-05-15T14:44:35.263Z,17.10
2023-05-15T14:47:07.513Z,17.16
2023-05-15T14:49:35.944Z,17.10
2023-05-15T14:52:04.450Z,16.91
2023-05-15T14:54:32.292Z,16.81
2023-05-15T14:56:59.548Z,16.80
2023-05-15T14:59:28.251Z,16.54
2023-05-15T15:01:55.537Z,16.51
2023-05-15T15:04:22.732Z,16.41
2023-05-15T15:06:50.238Z,16.56
2023-05-15T15:09:19.504Z,16.63
2023-05-15T15:11:48.067Z,16.60
2023-05-15T15:14:15.239Z,16.57
2023-05-15T15:16:44.346Z,16.26
2023-05-15T15:19:11.732Z,16.51
2023-05-15T15:21:38.881Z,16.00
2023-05-15T15:24:06.309Z,16.07
2023-05-15T15:26:33.518Z,16.11
2023-05-15T15:29:03.660Z,16.18
2023-05-15T15:31:31.218Z,16.03
2023-05-15T15:33:58.765Z,15.81
2023-05-15T15:36:26.256Z,15.82
2023-05-15T15:38:53.436Z,15.90
2023-05-15T15:41:23.697Z,15.83
2023-05-15T15:43:50.860Z,15.79
2023-05-15T15:46:18.050Z,15.79
2023-05-15T15:48:45.345Z,15.89
2023-05-15T15:51:12.565Z,15.71
2023-05-15T15:53:39.826Z,15.60
2023-05-15T15:56:07.751Z,15.51
2023-05-15T15:58:34.842Z,15.55
2023-05-15T16:01:03.133Z,15.72
2023-05-15T16:03:31.168Z,15.58
2023-05-15T16:06:00.143Z,15.57
2023-05-15T16:08:27.670Z,15.36
2023-05-15T16:10:55.238Z,15.52
2023-05-15T16:13:22.439Z,15.50
2023-05-15T16:15:49.600Z,15.35
2023-05-15T16:18:16.803Z,15.35
2023-05-15T16:20:43.991Z,15.33
2023-05-15T16:23:14.293Z,15.35
2023-05-15T16:25:42.189Z,15.17
2023-05-15T16:28:10.183Z,15.28
2023-05-15T16:30:48.168Z,15.20
2023-05-15T16:33:18.131Z,14.89
2023-05-15T16:35:45.817Z,15.12
2023-05-15T16:38:13.882Z,15.15
2023-05-15T16:40:41.402Z,15.20
2023-05-15T16:43:08.848Z,15.35
2023-05-15T16:45:35.964Z,14.94
2023-05-15T16:48:03.152Z,14.77
2023-05-15T16:50:32.377Z,14.97
2023-05-15T16:52:59.741Z,15.21
2023-05-15T16:55:27.453Z,15.04
2023-05-15T16:57:54.826Z,14.94
2023-05-15T17:00:22.869Z,14.92
2023-05-15T17:02:50.822Z,14.84
2023-05-15T17:05:18.127Z,15.03
2023-05-15T17:07:45.397Z,14.88
2023-05-15T17:10:13.159Z,14.74
2023-05-15T17:12:40.434Z,14.94
2023-05-15T17:15:08.026Z,14.76
2023-05-15T17:17:35.214Z,14.85
2023-05-15T17:20:03.564Z,14.66
2023-05-15T17:22:30.702Z,14.62
2023-05-15T17:24:58.175Z,14.90
2023-05-15T17:27:25.332Z,14.87
2023-05-15T17:29:52.465Z,14.73
2023-05-15T17:32:19.968Z,14.44
2023-05-15T17:34:47.355Z,14.64
2023-05-15T17:37:15.003Z,14.72
2023-05-15T17:39:42.962Z,14.04
2023-05-15T17:42:10.106Z,14.20
2023-05-15T17:44:37.158Z,14.33
2023-05-15T17:47:04.511Z,14.61
2023-05-15T17:49:34.163Z,14.52
2023-05-15T17:52:01.352Z,14.55
2023-05-15T17:54:28.587Z,14.30
2023-05-15T17:56:55.685Z,14.55
2023-05-15T17:59:22.796Z,14.63
2023-05-15T18:01:49.955Z,14.51
2023-05-15T18:04:17.296Z,14.51
2023-05-15T18:06:44.568Z,14.70
2023-05-15T18:09:11.973Z,14.37
2023-05-15T18:11:39.072Z,14.27
2023-05-15T18:14:06.670Z,14.18
2023-05-15T18:16:33.804Z,14.22
2023-05-15T18:19:01.585Z,14.36
2023-05-15T18:21:28.976Z,14.22
2023-05-15T18:23:56.171Z,14.16
2023-05-15T18:26:23.698Z,13.97
2023-05-15T18:28:50.898Z,14.29
2023-05-15T18:31:18.032Z,14.44
2023-05-15T18:33:45.218Z,14.34
2023-05-15T18:36:12.313Z,14.30
2023-05-15T18:38:39.608Z,14.25
2023-05-15T18:41:06.829Z,14.22
2023-05-15T18:43:33.942Z,13.98
2023-05-15T18:46:01.255Z,13.61
2023-05-15T18:48:28.543Z,13.87
2023-05-15T18:50:56.031Z,13.94
2023-05-15T18:53:23.128Z,13.57
2023-05-15T18:55:50.253Z,13.78
2023-05-15T18:58:17.298Z,13.79
2023-05-15T19:00:44.483Z,13.63
2023-05-15T19:03:11.791Z,13.80
2023-05-15T19:05:38.980Z,13.57
2023-05-15T19:08:07.347Z,13.78
2023-05-15T19:10:34.478Z,13.76
2023-05-15T19:13:01.610Z,13.41
2023-05-15T19:15:28.921Z,13.47
2023-05-15T19:17:56.216Z,13.67
2023-05-15T19:20:23.631Z,13.90
2023-05-15T19:22:51.001Z,13.86
2023-05-15T19:25:18.078Z,13.87
2023-05-15T19:27:45.292Z,13.83
2023-05-15T19:30:12.704Z,13.77
2023-05-15T19:32:39.938Z,13.83
2023-05-15T19:35:07.302Z,13.76
2023-05-15T19:37:34.398Z,13.82
2023-05-15T19:40:01.602Z,13.66
2023-05-15T19:42:28.716Z,13.71
2023-05-15T19:44:55.943Z,13.57
2023-05-15T19:47:23.098Z,13.80
2023-05-15T19:49:50.327Z,13.67
2023-05-15T19:52:17.520Z,13.63
2023-05-15T19:54:44.668Z,13.62
2023-05-15T19:57:11.796Z,13.57
2023-05-15T19:59:38.893Z,13.59
2023-05-15T20:02:10.482Z,13.43
2023-05-15T20:04:37.955Z,13.40
2023-05-15T20:07:05.720Z,13.31
2023-05-15T20:09:32.872Z,13.29
2023-05-15T20:12:00.097Z,13.51
2023-05-15T20:14:27.217Z,13.53
2023-05-15T20:16:54.296Z,13.51
2023-05-15T20:19:22.414Z,13.43
2023-05-15T20:21:50.046Z,13.19
2023-05-15T20:24:18.178Z,13.28
2023-05-15T20:26:45.701Z,13.24
2023-05-15T20:29:12.891Z,13.19
2023-05-15T20:31:40.669Z,13.08
2023-05-15T20:34:08.619Z,13.30
2023-05-15T20:36:38.968Z,13.38
2023-05-15T20:39:07.502Z,13.25
2023-05-15T20:41:34.915Z,13.23
2023-05-15T20:44:02.261Z,13.14
2023-05-15T20:46:30.729Z,12.99
2023-05-15T20:48:57.992Z,12.94
2023-05-15T20:51:25.189Z,12.85
2023-05-15T20:53:52.367Z,12.79
2023-05-15T20:56:19.567Z,12.80
2023-05-15T20:58:46.787Z,12.96
2023-05-15T21:01:14.193Z,13.05
2023-05-15T21:03:41.552Z,12.99
2023-05-15T21:06:09.443Z,12.99
2023-05-15T21:08:36.869Z,12.84
2023-05-15T21:11:03.963Z,12.86
2023-05-15T21:13:31.075Z,12.77
2023-05-15T21:15:58.132Z,12.84
2023-05-15T21:18:25.220Z,12.74
2023-05-15T21:20:53.036Z,12.94
2023-05-15T21:23:21.422Z,12.86
2023-05-15T21:25:48.554Z,12.75
2023-05-15T21:28:16.083Z,12.66
2023-05-15T21:30:43.299Z,12.75
2023-05-15T21:33:10.763Z,12.79
2023-05-15T21:35:38.357Z,12.83
2023-05-15T21:38:05.627Z,12.86
2023-05-15T21:40:32.821Z,12.74
2023-05-15T21:42:59.933Z,12.72
2023-05-15T21:45:27.150Z,12.73
2023-05-15T21:47:54.248Z,12.88
2023-05-15T21:50:21.349Z,12.83
2023-05-15T21:52:50.974Z,12.87
2023-05-15T21:55:19.013Z,12.96
2023-05-15T21:57:46.168Z,13.04
2023-05-15T22:00:14.183Z,12.94
2023-05-15T22:02:41.529Z,12.93
2023-05-15T22:05:09.105Z,12.87
2023-05-15T22:07:36.200Z,12.77
2023-05-15T22:10:03.624Z,12.94
2023-05-15T22:12:32.340Z,12.95
2023-05-15T22:15:00.071Z,12.93
2023-05-15T22:17:29.261Z,12.91
2023-05-15T22:20:07.023Z,12.79
2023-05-15T22:22:35.768Z,12.74
2023-05-15T22:25:03.015Z,12.70
2023-05-15T22:27:30.224Z,12.67
2023-05-15T22:29:57.420Z,12.61
2023-05-15T22:32:24.911Z,12.77
2023-05-15T22:34:52.216Z,12.80
2023-05-15T22:37:19.420Z,12.83
2023-05-15T22:39:46.579Z,12.82
2023-05-15T22:42:13.755Z,12.76
2023-05-15T22:44:40.841Z,12.76
2023-05-15T22:47:07.938Z,12.72
2023-05-15T22:49:35.072Z,12.73
2023-05-15T22:52:02.339Z,12.76
2023-05-15T22:54:29.491Z,12.71
2023-05-15T22:56:57.020Z,12.74
2023-05-15T22:59:24.176Z,12.76
2023-05-15T23:01:51.486Z,12.72
2023-05-15T23:04:18.960Z,12.79
2023-05-15T23:06:46.266Z,12.51
2023-05-15T23:09:13.435Z,12.77
2023-05-15T23:11:40.636Z,12.73
2023-05-15T23:14:08.514Z,12.67
2023-05-15T23:16:36.343Z,12.90
2023-05-15T23:19:04.023Z,12.84
2023-05-15T23:21:31.423Z,12.54
2023-05-15T23:23:58.577Z,12.80
2023-05-15T23:26:26.234Z,12.96
2023-05-15T23:28:53.423Z,13.14
2023-05-15T23:31:20.772Z,13.12
2023-05-15T23:33:48.055Z,13.17
2023-05-15T23:36:15.108Z,13.13
2023-05-15T23:38:42.276Z,13.03
2023-05-15T23:41:09.473Z,12.97
2023-05-15T23:43:36.807Z,13.12
2023-05-15T23:46:04.107Z,13.14
2023-05-15T23:48:31.855Z,13.05
2023-05-15T23:50:58.956Z,12.96
2023-05-15T23:53:25.994Z,12.70
2023-05-15T23:55:53.265Z,12.54
2023-05-15T23:58:21.561Z,12.70
